Robbins, IL (60472)

9:22 AM CST on February 14, 2016 (GMT -0600)
Oak Forest | | Change Station
CLOSE
Current Station
Personal Weather Station
Location: Oak Forest, IL
Elevation: 640 ft
Nearby Weather Stations

Elev 640 ft 41.61 °N, 87.74 °W | Updated 7 seconds ago

Overcast
Overcast
16.2 °F
Feels Like 5 °F
N
9.4
Wind Variable Wind from SSE

Today
High -- | Low -- °F
--% Chance of Precip.
Yesterday
High -- | Low -- °F
Precip. -- in
Pressure 30.35 in
Visibility 10.0 miles
Clouds Few 3000 ft
Scattered Clouds 6500 ft
Mostly Cloudy 14000 ft
Windchill 5 °F
Dew Point 3 °F
Humidity 56%
Rainfall 0.00 in
Snow Depth Not available.
6:48 AM 5:22 PM
Waxing Crescent, 42% visible
METAR KMDW 141453Z 12013KT 10SM FEW030 SCT065 BKN140 M09/M17 A3029 RMK AO2 SLP275 T10891172 58033
Pressure 30.35 in
Visibility 10.0 miles
Clouds Few 3000 ft
Scattered Clouds 6500 ft
Mostly Cloudy 14000 ft
Windchill 5 °F
Dew Point 3 °F
Humidity 56%
Rainfall 0.00 in
Snow Depth Not available.
6:48 AM 5:22 PM
Waxing Crescent, 42% visible
METAR KMDW 141453Z 12013KT 10SM FEW030 SCT065 BKN140 M09/M17 A3029 RMK AO2 SLP275 T10891172 58033

10-Day Weather Forecast

Almanac

Astronomy

Feb. 14, 2016 Rise Set
Actual Time
Civil Twilight
Nautical Twilight
Astronomical Twilight
Moon
Length of Visible Light
Length of Day
Tomorrow will be .
, % of the Moon is Illuminated

Today's Extremes

State Highs State Lows

Community

WunderPhotos

Upload Photos

1,892,791 photos uploaded!

WunderBlog® & News

Nearby

Air Quality

  Air Quality AQ Index Pollutant
Not available.

Snow Depth

Station Depth Elevation

Earthquake Activity

City Distance Mag. Time & Date
Minimum magnitude displayed is 2.5.

Coastal Water Temperatures

Place Temperature

Stations

Nearby Weather Stations

Station Location Temp. Windchill Dew Point Humidity Wind Precip. Elev Updated Type
                   

Watches & Warnings

There are currently no watches in effect.